Braithwaite, Louisiana
Current Conditions -  °F | °C
As of 9:55 PM on Wednesday 28 Jan 2015 (Local Time) from KNBG Reporting Station
Scattered Clouds Scattered Clouds  
Wind Chill: 52°   Ceiling: Unl
Heat Index: 52°   Visibility: 10mi
Dew Point: 46°   Wind: 3mph
Humidity: 80%   Direction: 140°SE
Pressure: 30.22"   Gusts: NA
Location:  29.87°N, 89.94°W
Report Text: KNBG 290355Z 14003KT 10SM SCT250 11/08 A3022 RMK AO2 SLP233 T01110078 $
Loading
Personal Weather Stations






























Interactive Weather Map New forecast layout! Learn more

10-Day Weather Forecast

Advertisements
Track Severe Weather on mobile